createdAt,value
2019-03-21T00:00:06.007Z,99.99
2019-03-21T00:01:05.925Z,99.99
2019-03-21T00:02:05.805Z,99.99
2019-03-21T00:03:05.701Z,99.99
2019-03-21T00:04:05.604Z,99.99
2019-03-21T00:05:05.496Z,99.99
2019-03-21T00:06:05.398Z,99.99
2019-03-21T00:07:05.309Z,99.99
2019-03-21T00:08:05.196Z,99.99
2019-03-21T00:09:05.096Z,99.99
2019-03-21T00:10:04.991Z,99.99
2019-03-21T00:11:04.893Z,99.99
2019-03-21T00:12:04.804Z,99.99
2019-03-21T00:13:04.689Z,99.99
2019-03-21T00:14:07.213Z,99.99
2019-03-21T00:15:04.483Z,99.99
2019-03-21T00:16:04.386Z,99.99
2019-03-21T00:17:04.295Z,99.99
2019-03-21T00:18:04.199Z,99.99
2019-03-21T00:19:04.078Z,99.99
2019-03-21T00:20:03.980Z,99.99
2019-03-21T00:21:03.875Z,99.99
2019-03-21T00:22:03.790Z,99.99
2019-03-21T00:23:03.669Z,99.99
2019-03-21T00:24:03.575Z,99.99
2019-03-21T00:25:03.469Z,99.99
2019-03-21T00:26:03.373Z,99.99
2019-03-21T00:27:03.286Z,99.99
2019-03-21T00:28:03.169Z,99.99
2019-03-21T00:29:03.182Z,99.99
2019-03-21T00:30:02.963Z,99.99
2019-03-21T00:31:02.858Z,99.99
2019-03-21T00:32:02.779Z,99.99
2019-03-21T00:33:02.664Z,99.99
2019-03-21T00:34:02.553Z,99.99
2019-03-21T00:35:02.454Z,99.99
2019-03-21T00:36:02.457Z,99.99
2019-03-21T00:37:02.269Z,99.99
2019-03-21T00:38:02.147Z,99.99
2019-03-21T00:39:02.045Z,99.99
2019-03-21T00:40:01.945Z,99.99
2019-03-21T00:41:01.846Z,99.99
2019-03-21T00:42:01.794Z,99.99
2019-03-21T00:43:01.739Z,99.99
2019-03-21T00:44:01.536Z,99.99
2019-03-21T00:45:01.441Z,99.99
2019-03-21T00:46:01.348Z,99.99
2019-03-21T00:47:01.247Z,99.99
2019-03-21T00:48:01.133Z,99.99
2019-03-21T00:49:01.030Z,99.99
2019-03-21T00:50:01.036Z,99.99
2019-03-21T00:51:00.824Z,99.99
2019-03-21T00:52:00.739Z,99.99
2019-03-21T00:53:00.622Z,99.99
2019-03-21T00:54:00.522Z,99.99
2019-03-21T00:55:00.418Z,99.99
2019-03-21T00:56:00.322Z,99.99
2019-03-21T00:57:00.330Z,99.99
2019-03-21T00:58:00.115Z,99.99
2019-03-21T00:59:00.015Z,99.99
2019-03-21T00:59:59.909Z,99.99
2019-03-21T01:00:59.810Z,99.99
2019-03-21T01:01:59.728Z,99.99
2019-03-21T01:02:59.606Z,99.99
2019-03-21T01:03:59.604Z,99.99
2019-03-21T01:04:59.403Z,99.99
2019-03-21T01:05:59.299Z,99.99
2019-03-21T01:06:59.214Z,99.99
2019-03-21T01:07:59.097Z,99.99
2019-03-21T01:08:58.996Z,99.99
2019-03-21T01:09:58.893Z,99.99
2019-03-21T01:10:58.900Z,99.99
2019-03-21T01:11:58.705Z,99.99
2019-03-21T01:12:58.591Z,99.99
2019-03-21T01:13:58.496Z,99.99
2019-03-21T01:14:58.384Z,99.99
2019-03-21T01:15:58.287Z,99.99
2019-03-21T01:16:58.200Z,99.99
2019-03-21T01:17:58.191Z,99.99
2019-03-21T01:18:57.977Z,99.99
2019-03-21T01:19:57.886Z,99.99
2019-03-21T01:20:57.776Z,99.99
2019-03-21T01:21:57.690Z,99.99
2019-03-21T01:22:57.571Z,99.99
2019-03-21T01:23:57.476Z,99.99
2019-03-21T01:24:57.481Z,99.99
2019-03-21T01:25:57.267Z,99.99
2019-03-21T01:26:57.182Z,99.99
2019-03-21T01:27:57.066Z,99.99
2019-03-21T01:28:56.966Z,99.99
2019-03-21T01:29:56.861Z,99.99
2019-03-21T01:30:56.759Z,99.99
2019-03-21T01:31:56.782Z,99.99
2019-03-21T01:32:56.560Z,99.99
2019-03-21T01:33:56.455Z,99.99
2019-03-21T01:34:56.373Z,99.99
2019-03-21T01:35:56.252Z,99.99
2019-03-21T01:36:56.168Z,99.99
2019-03-21T01:37:56.053Z,99.99
2019-03-21T01:38:55.946Z,99.99
2019-03-21T01:39:55.844Z,99.99
2019-03-21T01:40:55.746Z,99.99
2019-03-21T01:41:55.663Z,99.99
2019-03-21T01:42:55.542Z,99.99
2019-03-21T01:43:55.439Z,99.99
2019-03-21T01:44:55.337Z,99.99
2019-03-21T01:45:55.241Z,99.99
2019-03-21T01:46:55.151Z,99.99
2019-03-21T01:47:55.033Z,99.99
2019-03-21T01:48:54.937Z,99.99
2019-03-21T01:49:54.832Z,99.99
2019-03-21T01:50:54.727Z,99.99
2019-03-21T01:51:54.630Z,99.99
2019-03-21T01:52:54.647Z,99.99
2019-03-21T01:53:54.436Z,99.99
2019-03-21T01:54:54.322Z,99.99
2019-03-21T01:55:54.221Z,99.99
2019-03-21T01:56:54.122Z,99.99
2019-03-21T01:57:54.038Z,99.99
2019-03-21T01:58:54.025Z,99.99
2019-03-21T01:59:53.817Z,99.99
2019-03-21T02:00:53.716Z,99.99
2019-03-21T02:01:53.614Z,99.99
2019-03-21T02:02:53.538Z,99.99
2019-03-21T02:03:53.408Z,99.99
2019-03-21T02:04:53.311Z,99.99
2019-03-21T02:05:53.206Z,99.99
2019-03-21T02:06:53.112Z,99.99
2019-03-21T02:07:53.019Z,99.99
2019-03-21T02:08:52.901Z,99.99
2019-03-21T02:09:52.801Z,99.99
2019-03-21T02:10:52.702Z,99.99
2019-03-21T02:11:52.598Z,99.99
2019-03-21T02:12:52.514Z,99.99
2019-03-21T02:13:52.394Z,99.99
2019-03-21T02:14:52.610Z,99.99
2019-03-21T02:15:52.193Z,99.99
2019-03-21T02:16:52.090Z,99.99
2019-03-21T02:17:52.007Z,99.99
2019-03-21T02:18:51.890Z,99.99
2019-03-21T02:19:51.787Z,99.99
2019-03-21T02:20:51.694Z,99.99
2019-03-21T02:21:51.582Z,99.99
2019-03-21T02:22:51.497Z,99.99
2019-03-21T02:23:51.380Z,99.99
2019-03-21T02:24:51.280Z,99.99
2019-03-21T02:25:51.175Z,99.99
2019-03-21T02:26:51.074Z,99.99
2019-03-21T02:27:50.992Z,99.99
2019-03-21T02:28:50.873Z,99.99
2019-03-21T02:29:50.770Z,99.99
2019-03-21T02:30:50.673Z,99.99
2019-03-21T02:31:50.585Z,99.99
2019-03-21T02:32:50.482Z,99.99
2019-03-21T02:33:50.367Z,99.99
2019-03-21T02:34:50.265Z,99.99
2019-03-21T02:35:50.165Z,99.99
2019-03-21T02:36:50.069Z,99.99
2019-03-21T02:37:49.979Z,99.99
2019-03-21T02:38:49.859Z,99.99
2019-03-21T02:39:59.458Z,99.99
2019-03-21T02:40:49.656Z,99.99
2019-03-21T02:41:49.554Z,99.99
2019-03-21T02:42:49.471Z,99.99
2019-03-21T02:43:49.355Z,99.99
2019-03-21T02:44:49.315Z,99.99
2019-03-21T02:45:49.339Z,99.99
2019-03-21T02:46:49.046Z,99.99
2019-03-21T02:47:48.959Z,99.99
2019-03-21T02:48:48.845Z,99.99
2019-03-21T02:49:48.741Z,99.99
2019-03-21T02:50:48.638Z,99.99
2019-03-21T02:51:48.538Z,99.99
2019-03-21T02:52:48.453Z,99.99
2019-03-21T02:53:48.336Z,99.99
2019-03-21T02:54:48.309Z,99.99
2019-03-21T02:55:48.142Z,99.99
2019-03-21T02:56:48.036Z,99.99
2019-03-21T02:57:47.947Z,99.99
2019-03-21T02:58:47.830Z,99.99
2019-03-21T02:59:47.741Z,99.99
2019-03-21T03:00:47.701Z,99.99
2019-03-21T03:01:47.534Z,99.99
2019-03-21T03:02:47.444Z,99.99
2019-03-21T03:03:47.320Z,99.99
2019-03-21T03:04:47.220Z,99.99
2019-03-21T03:05:47.116Z,99.99
2019-03-21T03:06:47.011Z,99.99
2019-03-21T03:07:46.943Z,99.99
2019-03-21T03:08:46.817Z,99.99
2019-03-21T03:09:46.705Z,99.99
2019-03-21T03:10:46.613Z,99.99
2019-03-21T03:11:46.507Z,99.99
2019-03-21T03:12:46.423Z,99.99
2019-03-21T03:13:46.299Z,99.99
2019-03-21T03:14:46.198Z,99.99
2019-03-21T03:15:46.097Z,99.99
2019-03-21T03:16:46.013Z,99.99
2019-03-21T03:17:45.920Z,99.99
2019-03-21T03:18:45.792Z,99.99
2019-03-21T03:19:45.692Z,99.99
2019-03-21T03:20:45.586Z,99.99
2019-03-21T03:21:45.494Z,99.99
2019-03-21T03:22:45.401Z,99.99
2019-03-21T03:23:45.583Z,99.99
2019-03-21T03:24:45.183Z,99.99
2019-03-21T03:25:45.081Z,99.99
2019-03-21T03:26:44.976Z,99.99
2019-03-21T03:27:44.876Z,99.99
2019-03-21T03:28:44.789Z,99.99
2019-03-21T03:29:44.745Z,99.99
2019-03-21T03:30:44.680Z,99.99
2019-03-21T03:31:44.467Z,99.99
2019-03-21T03:32:44.382Z,99.99
2019-03-21T03:33:44.269Z,99.99
2019-03-21T03:34:44.160Z,99.99
2019-03-21T03:35:44.064Z,99.99
2019-03-21T03:36:43.960Z,99.99
2019-03-21T03:37:43.971Z,99.99
2019-03-21T03:38:43.769Z,99.99
2019-03-21T03:39:43.674Z,99.99
2019-03-21T03:40:43.546Z,99.99
2019-03-21T03:41:43.458Z,99.99
2019-03-21T03:42:43.343Z,99.99
2019-03-21T03:43:43.265Z,99.99
2019-03-21T03:44:43.242Z,99.99
2019-03-21T03:45:43.037Z,99.99
2019-03-21T03:46:42.937Z,99.99
2019-03-21T03:47:42.839Z,99.99
2019-03-21T03:48:42.748Z,99.99
2019-03-21T03:49:42.696Z,99.99
2019-03-21T03:50:42.526Z,99.99
2019-03-21T03:51:42.531Z,99.99
2019-03-21T03:52:42.335Z,99.99
2019-03-21T03:53:42.820Z,99.99
2019-03-21T03:54:42.132Z,99.99
2019-03-21T03:55:42.016Z,99.99
2019-03-21T03:56:41.915Z,99.99
2019-03-21T03:57:41.844Z,99.99
2019-03-21T03:58:41.831Z,99.99
2019-03-21T03:59:41.609Z,99.99
2019-03-21T04:00:41.512Z,99.99
2019-03-21T04:01:41.413Z,99.99
2019-03-21T04:02:41.302Z,99.99
2019-03-21T04:03:41.213Z,99.99
2019-03-21T04:04:41.109Z,99.99
2019-03-21T04:05:41.111Z,99.99
2019-03-21T04:06:40.894Z,99.99
2019-03-21T04:07:40.788Z,99.99
2019-03-21T04:08:40.702Z,99.99
2019-03-21T04:09:40.585Z,99.99
2019-03-21T04:10:40.482Z,99.99
2019-03-21T04:11:40.383Z,99.99
2019-03-21T04:12:40.389Z,99.99
2019-03-21T04:13:40.191Z,99.99
2019-03-21T04:14:40.072Z,99.99
2019-03-21T04:15:51.774Z,99.99
2019-03-21T04:16:39.869Z,99.99
2019-03-21T04:17:39.765Z,99.99
2019-03-21T04:18:39.679Z,99.99
2019-03-21T04:19:39.664Z,99.99
2019-03-21T04:20:39.458Z,99.99
2019-03-21T04:21:39.359Z,99.99
2019-03-21T04:22:39.258Z,99.99
2019-03-21T04:23:39.207Z,99.99
2019-03-21T04:24:39.058Z,99.99
2019-03-21T04:25:38.950Z,99.99
2019-03-21T04:26:38.955Z,99.99
2019-03-21T04:27:38.744Z,99.99
2019-03-21T04:28:38.660Z,99.99
2019-03-21T04:29:38.539Z,99.99
2019-03-21T04:30:38.488Z,99.99
2019-03-21T04:31:38.338Z,99.99
2019-03-21T04:32:38.234Z,99.99
2019-03-21T04:33:38.254Z,99.99
2019-03-21T04:34:38.032Z,99.99
2019-03-21T04:35:37.925Z,99.99
2019-03-21T04:36:37.829Z,99.99
2019-03-21T04:37:37.733Z,99.99
2019-03-21T04:38:37.636Z,99.99
2019-03-21T04:39:37.626Z,99.99
2019-03-21T04:40:37.416Z,99.99
2019-03-21T04:41:37.316Z,99.99
2019-03-21T04:42:37.211Z,99.99
2019-03-21T04:43:37.125Z,99.99
2019-03-21T04:44:37.009Z,99.99
2019-03-21T04:45:36.906Z,99.99
2019-03-21T04:46:36.802Z,99.99
2019-03-21T04:47:36.703Z,99.99
2019-03-21T04:48:36.614Z,99.99
2019-03-21T04:49:36.496Z,99.99
2019-03-21T04:50:36.392Z,99.99
2019-03-21T04:51:36.293Z,99.99
2019-03-21T04:52:36.189Z,99.99
2019-03-21T04:53:36.106Z,99.99
2019-03-21T04:54:35.989Z,99.99
2019-03-21T04:55:35.888Z,99.99
2019-03-21T04:56:35.783Z,99.99
2019-03-21T04:57:35.682Z,99.99
2019-03-21T04:58:35.592Z,99.99
2019-03-21T04:59:35.476Z,99.99
2019-03-21T05:00:35.373Z,99.99
2019-03-21T05:01:35.276Z,99.99
2019-03-21T05:02:35.168Z,99.99
2019-03-21T05:03:35.083Z,99.99
2019-03-21T05:04:34.967Z,99.99
2019-03-21T05:05:34.863Z,99.99
2019-03-21T05:06:34.766Z,99.99
2019-03-21T05:07:34.663Z,99.99
2019-03-21T05:08:34.574Z,99.99
2019-03-21T05:09:34.456Z,99.99
2019-03-21T05:10:34.352Z,99.99
2019-03-21T05:11:34.252Z,99.99
2019-03-21T05:12:34.154Z,99.99
2019-03-21T05:13:34.064Z,99.99
2019-03-21T05:14:33.945Z,99.99
2019-03-21T05:15:33.840Z,99.99
2019-03-21T05:16:33.735Z,99.99
2019-03-21T05:17:33.638Z,99.99
2019-03-21T05:18:33.540Z,99.99
2019-03-21T05:19:33.451Z,99.99
2019-03-21T05:20:33.331Z,99.99
2019-03-21T05:21:33.228Z,99.99
2019-03-21T05:22:33.128Z,99.99
2019-03-21T05:23:33.026Z,99.99
2019-03-21T05:24:32.944Z,99.99
2019-03-21T05:25:32.820Z,99.99
2019-03-21T05:26:32.719Z,99.99
2019-03-21T05:27:32.616Z,99.99
2019-03-21T05:28:32.516Z,99.99
2019-03-21T05:29:32.427Z,99.99
2019-03-21T05:30:32.313Z,99.99
2019-03-21T05:31:32.208Z,99.99
2019-03-21T05:32:32.104Z,99.99
2019-03-21T05:33:32.004Z,99.99
2019-03-21T05:34:31.915Z,99.99
2019-03-21T05:35:31.801Z,99.99
2019-03-21T05:36:31.697Z,99.99
2019-03-21T05:37:31.595Z,99.99
2019-03-21T05:38:31.500Z,99.99
2019-03-21T05:39:31.403Z,99.99
2019-03-21T05:40:31.289Z,99.99
2019-03-21T05:41:31.192Z,99.99
2019-03-21T05:42:31.086Z,99.99
2019-03-21T05:43:30.981Z,99.99
2019-03-21T05:44:30.992Z,99.99
2019-03-21T05:45:30.778Z,99.99
2019-03-21T05:46:30.672Z,99.99
2019-03-21T05:47:30.573Z,99.99
2019-03-21T05:48:30.474Z,99.99
2019-03-21T05:49:30.391Z,99.99
2019-03-21T05:50:30.268Z,99.99
2019-03-21T05:51:30.168Z,99.99
2019-03-21T05:52:30.066Z,99.99
2019-03-21T05:53:29.961Z,99.99
2019-03-21T05:54:29.877Z,99.99
2019-03-21T05:55:29.773Z,99.99
2019-03-21T05:56:29.655Z,99.99
2019-03-21T05:57:29.556Z,99.99
2019-03-21T05:58:29.455Z,99.99
2019-03-21T05:59:29.383Z,99.99
2019-03-21T06:00:29.247Z,99.99
2019-03-21T06:01:29.150Z,99.99
2019-03-21T06:02:29.042Z,99.99
2019-03-21T06:03:29.050Z,99.99
2019-03-21T06:04:28.858Z,99.99
2019-03-21T06:05:28.738Z,99.99
2019-03-21T06:06:28.638Z,99.99
2019-03-21T06:07:28.537Z,99.99
2019-03-21T06:08:28.434Z,99.99
2019-03-21T06:09:28.353Z,99.99
2019-03-21T06:10:28.333Z,99.99
2019-03-21T06:11:28.130Z,99.99
2019-03-21T06:12:28.038Z,99.99
2019-03-21T06:13:27.927Z,99.99
2019-03-21T06:14:27.842Z,99.99
2019-03-21T06:15:27.726Z,99.99
2019-03-21T06:16:37.268Z,99.99
2019-03-21T06:17:27.631Z,99.99
2019-03-21T06:18:27.426Z,99.99
2019-03-21T06:19:27.339Z,99.99
2019-03-21T06:20:27.226Z,99.99
2019-03-21T06:21:27.126Z,99.99
2019-03-21T06:22:27.025Z,99.99
2019-03-21T06:23:26.924Z,99.99
2019-03-21T06:24:26.952Z,99.99
2019-03-21T06:25:26.728Z,99.99
2019-03-21T06:26:26.626Z,99.99
2019-03-21T06:27:26.529Z,99.99
2019-03-21T06:28:26.433Z,99.99
2019-03-21T06:29:26.350Z,99.99
2019-03-21T06:30:26.237Z,99.99
2019-03-21T06:31:26.237Z,99.99
2019-03-21T06:32:26.040Z,99.99
2019-03-21T06:33:25.939Z,99.99
2019-03-21T06:34:25.865Z,99.99
2019-03-21T06:35:25.747Z,99.99
2019-03-21T06:36:25.651Z,99.99
2019-03-21T06:37:28.318Z,99.99
2019-03-21T06:38:25.550Z,99.87
2019-03-21T06:39:25.416Z,99.35
2019-03-21T06:40:25.260Z,99.06
2019-03-21T06:41:25.161Z,97.83
2019-03-21T06:42:25.062Z,97.31
2019-03-21T06:43:24.970Z,96.64
2019-03-21T06:44:24.886Z,96.17
2019-03-21T06:45:24.879Z,94.32
2019-03-21T06:46:24.675Z,94.51
2019-03-21T06:47:24.583Z,94.18
2019-03-21T06:48:24.485Z,95.70
2019-03-21T06:49:24.412Z,96.26
2019-03-21T06:50:24.291Z,95.94
2019-03-21T06:51:24.198Z,96.50
2019-03-21T06:52:24.211Z,95.94
2019-03-21T06:53:24.006Z,95.56
2019-03-21T06:54:23.930Z,93.46
2019-03-21T06:55:23.815Z,94.60
2019-03-21T06:56:23.720Z,95.60
2019-03-21T06:57:23.627Z,95.70
2019-03-21T06:58:23.531Z,95.70
2019-03-21T06:59:23.453Z,95.12
2019-03-21T07:00:25.045Z,94.22
2019-03-21T07:01:23.249Z,93.51
2019-03-21T07:02:23.153Z,94.03
2019-03-21T07:03:23.061Z,94.51
2019-03-21T07:04:22.983Z,93.55
2019-03-21T07:05:22.872Z,93.23
2019-03-21T07:06:22.783Z,93.18
2019-03-21T07:07:22.687Z,93.94
2019-03-21T07:08:22.593Z,93.27
2019-03-21T07:09:22.503Z,92.70
2019-03-21T07:10:22.422Z,93.08
2019-03-21T07:11:22.311Z,92.80
2019-03-21T07:12:22.219Z,92.84
2019-03-21T07:13:22.125Z,91.51
2019-03-21T07:14:22.034Z,91.84
2019-03-21T07:15:21.958Z,91.27
2019-03-21T07:16:21.846Z,89.56
2019-03-21T07:17:22.943Z,89.27
2019-03-21T07:18:21.662Z,88.51
2019-03-21T07:19:21.570Z,87.65
2019-03-21T07:20:21.492Z,86.46
2019-03-21T07:21:21.391Z,88.98
2019-03-21T07:22:21.292Z,86.79
2019-03-21T07:23:21.209Z,85.31
2019-03-21T07:24:21.120Z,84.92
2019-03-21T07:25:21.038Z,84.26
2019-03-21T07:26:20.927Z,85.12
2019-03-21T07:27:20.833Z,85.60
2019-03-21T07:28:20.740Z,85.17
2019-03-21T07:29:20.649Z,84.79
2019-03-21T07:30:20.577Z,86.32
2019-03-21T07:31:20.469Z,87.31
2019-03-21T07:32:20.377Z,85.41
2019-03-21T07:33:20.285Z,85.35
2019-03-21T07:34:20.195Z,82.97
2019-03-21T07:35:20.122Z,84.49
2019-03-21T07:36:20.012Z,83.67
2019-03-21T07:37:19.920Z,82.82
2019-03-21T07:38:19.831Z,81.48
2019-03-21T07:39:19.738Z,80.19
2019-03-21T07:40:19.667Z,80.47
2019-03-21T07:41:19.561Z,79.65
2019-03-21T07:42:19.471Z,78.41
2019-03-21T07:43:22.083Z,77.11
2019-03-21T07:44:19.287Z,75.91
2019-03-21T07:45:19.217Z,76.86
2019-03-21T07:46:19.109Z,76.86
2019-03-21T07:47:19.017Z,76.77
2019-03-21T07:48:18.932Z,76.86
2019-03-21T07:49:18.840Z,77.00
2019-03-21T07:50:18.769Z,76.65
2019-03-21T07:51:18.670Z,76.42
2019-03-21T07:52:18.574Z,75.18
2019-03-21T07:53:18.482Z,75.12
2019-03-21T07:54:18.393Z,75.56
2019-03-21T07:55:18.320Z,74.90
2019-03-21T07:56:18.219Z,74.19
2019-03-21T07:57:18.126Z,72.28
2019-03-21T07:58:18.037Z,71.64
2019-03-21T07:59:17.953Z,70.97
2019-03-21T08:00:17.883Z,71.45
2019-03-21T08:01:17.776Z,71.30
2019-03-21T08:02:17.687Z,71.97
2019-03-21T08:03:17.604Z,71.68
2019-03-21T08:04:17.513Z,71.77
2019-03-21T08:05:17.438Z,69.48
2019-03-21T08:06:17.334Z,70.91
2019-03-21T08:07:17.253Z,71.87
2019-03-21T08:08:17.160Z,72.58
2019-03-21T08:09:17.075Z,70.27
2019-03-21T08:10:17.004Z,71.42
2019-03-21T08:11:16.900Z,73.23
2019-03-21T08:12:16.809Z,74.19
2019-03-21T08:13:16.726Z,73.29
2019-03-21T08:14:16.633Z,73.04
2019-03-21T08:15:16.669Z,73.58
2019-03-21T08:16:16.466Z,75.96
2019-03-21T08:17:16.372Z,74.21
2019-03-21T08:18:16.285Z,74.34
2019-03-21T08:19:16.198Z,73.67
2019-03-21T08:20:16.130Z,73.16
2019-03-21T08:21:16.026Z,73.73
2019-03-21T08:22:15.934Z,74.15
2019-03-21T08:23:15.847Z,73.77
2019-03-21T08:24:15.762Z,73.92
2019-03-21T08:25:15.688Z,75.07
2019-03-21T08:26:15.590Z,74.82
2019-03-21T08:27:15.499Z,74.69
2019-03-21T08:28:15.410Z,74.44
2019-03-21T08:29:15.322Z,74.40
2019-03-21T08:30:15.233Z,75.20
2019-03-21T08:31:15.161Z,74.44
2019-03-21T08:32:15.057Z,73.07
2019-03-21T08:33:14.967Z,73.54
2019-03-21T08:34:14.878Z,75.13
2019-03-21T08:35:14.807Z,76.94
2019-03-21T08:36:14.705Z,77.28
2019-03-21T08:37:14.718Z,77.09
2019-03-21T08:38:14.523Z,77.23
2019-03-21T08:39:14.437Z,78.31
2019-03-21T08:40:14.354Z,76.16
2019-03-21T08:41:14.276Z,74.40
2019-03-21T08:42:14.170Z,75.64
2019-03-21T08:43:14.083Z,75.01
2019-03-21T08:44:14.092Z,75.14
2019-03-21T08:45:13.921Z,73.99
2019-03-21T08:46:13.814Z,71.42
2019-03-21T08:47:13.782Z,70.78
2019-03-21T08:48:13.638Z,69.95
2019-03-21T08:49:13.556Z,68.93
2019-03-21T08:50:13.495Z,69.82
2019-03-21T08:51:13.522Z,69.54
2019-03-21T08:52:13.284Z,69.60
2019-03-21T08:53:13.201Z,70.27
2019-03-21T08:54:13.107Z,71.67
2019-03-21T08:55:13.020Z,71.57
2019-03-21T08:56:12.946Z,71.76
2019-03-21T08:57:12.843Z,72.14
2019-03-21T08:58:12.858Z,72.36
2019-03-21T08:59:12.669Z,74.59
2019-03-21T09:00:12.580Z,73.67
2019-03-21T09:01:12.508Z,74.44
2019-03-21T09:02:12.398Z,74.19
2019-03-21T09:03:12.315Z,73.29
2019-03-21T09:04:12.224Z,72.33
2019-03-21T09:05:12.245Z,72.53
2019-03-21T09:06:12.061Z,74.05
2019-03-21T09:07:11.959Z,71.80
2019-03-21T09:08:11.872Z,71.80
2019-03-21T09:09:11.784Z,71.16
2019-03-21T09:10:11.693Z,71.64
2019-03-21T09:11:11.624Z,69.21
2019-03-21T09:12:11.618Z,67.97
2019-03-21T09:13:11.429Z,66.38
2019-03-21T09:14:11.338Z,68.90
2019-03-21T09:15:11.271Z,66.96
2019-03-21T09:16:11.183Z,67.11
2019-03-21T09:17:11.074Z,66.80
2019-03-21T09:18:10.982Z,67.85
2019-03-21T09:19:11.002Z,67.34
2019-03-21T09:20:10.823Z,65.91
2019-03-21T09:21:19.144Z,65.78
2019-03-21T09:22:10.634Z,67.15
2019-03-21T09:23:10.546Z,65.75
2019-03-21T09:24:10.457Z,65.26
2019-03-21T09:25:10.375Z,65.94
2019-03-21T09:26:10.297Z,65.77
2019-03-21T09:27:10.193Z,67.18
2019-03-21T09:28:10.106Z,69.60
2019-03-21T09:29:10.023Z,68.74
2019-03-21T09:30:09.935Z,70.24
2019-03-21T09:31:09.862Z,69.95
2019-03-21T09:32:09.774Z,67.21
2019-03-21T09:33:09.783Z,67.05
2019-03-21T09:34:09.582Z,65.42
2019-03-21T09:35:12.277Z,65.08
2019-03-21T09:36:09.428Z,64.43
2019-03-21T09:37:09.331Z,63.92
2019-03-21T09:38:09.233Z,65.36
2019-03-21T09:39:09.152Z,64.34
2019-03-21T09:40:09.059Z,62.96
2019-03-21T09:41:08.988Z,64.82
2019-03-21T09:42:08.887Z,63.19
2019-03-21T09:43:08.797Z,62.55
2019-03-21T09:44:08.711Z,62.26
2019-03-21T09:45:08.630Z,62.52
2019-03-21T09:46:08.557Z,63.29
2019-03-21T09:47:08.454Z,61.30
2019-03-21T09:48:08.366Z,62.55
2019-03-21T09:49:08.282Z,62.20
2019-03-21T09:50:08.193Z,62.96
2019-03-21T09:51:08.130Z,63.12
2019-03-21T09:52:08.024Z,62.55
2019-03-21T09:53:07.936Z,60.79
2019-03-21T09:54:09.966Z,60.92
2019-03-21T09:55:07.764Z,60.95
2019-03-21T09:56:07.685Z,61.81
2019-03-21T09:57:07.611Z,60.95
2019-03-21T09:58:07.506Z,60.35
2019-03-21T09:59:07.422Z,60.50
2019-03-21T10:00:07.341Z,60.78
2019-03-21T10:01:07.251Z,60.57
2019-03-21T10:02:07.187Z,59.09
2019-03-21T10:03:07.084Z,60.82
2019-03-21T10:04:07.000Z,60.44
2019-03-21T10:05:06.912Z,62.10
2019-03-21T10:06:06.829Z,61.75
2019-03-21T10:07:06.759Z,60.56
2019-03-21T10:08:06.656Z,58.70
2019-03-21T10:09:06.576Z,58.92
2019-03-21T10:10:06.486Z,59.12
2019-03-21T10:11:06.405Z,61.87
2019-03-21T10:12:06.339Z,59.02
2019-03-21T10:13:06.241Z,58.18
2019-03-21T10:14:06.153Z,55.49
2019-03-21T10:15:06.066Z,56.21
2019-03-21T10:16:05.985Z,59.38
2019-03-21T10:17:05.915Z,59.50
2019-03-21T10:18:05.810Z,59.60
2019-03-21T10:19:05.728Z,60.08
2019-03-21T10:20:05.645Z,61.01
2019-03-21T10:21:05.562Z,60.72
2019-03-21T10:22:05.497Z,61.36
2019-03-21T10:23:05.393Z,63.22
2019-03-21T10:24:05.316Z,63.57
2019-03-21T10:25:05.232Z,63.22
2019-03-21T10:26:05.146Z,59.28
2019-03-21T10:27:05.077Z,57.84
2019-03-21T10:28:04.977Z,58.61
2019-03-21T10:29:04.891Z,56.68
2019-03-21T10:30:04.822Z,56.46
2019-03-21T10:31:04.727Z,57.81
2019-03-21T10:32:13.938Z,58.61
2019-03-21T10:33:04.586Z,58.22
2019-03-21T10:34:04.531Z,57.62
2019-03-21T10:35:04.397Z,58.04
2019-03-21T10:36:04.308Z,58.94
2019-03-21T10:37:04.227Z,58.81
2019-03-21T10:38:04.165Z,59.16
2019-03-21T10:39:04.056Z,58.89
2019-03-21T10:40:03.974Z,60.63
2019-03-21T10:41:03.891Z,60.94
2019-03-21T10:42:03.805Z,58.13
2019-03-21T10:43:03.736Z,57.10
2019-03-21T10:44:03.640Z,56.37
2019-03-21T10:45:03.557Z,58.96
2019-03-21T10:46:03.475Z,59.25
2019-03-21T10:47:03.389Z,59.60
2019-03-21T10:48:03.321Z,57.51
2019-03-21T10:49:03.219Z,56.27
2019-03-21T10:50:03.136Z,58.94
2019-03-21T10:51:03.054Z,58.17
2019-03-21T10:52:02.976Z,58.55
2019-03-21T10:53:02.902Z,60.47
2019-03-21T10:54:02.801Z,59.80
2019-03-21T10:55:02.716Z,59.19
2019-03-21T10:56:02.637Z,60.82
2019-03-21T10:57:02.552Z,59.83
2019-03-21T10:58:02.484Z,59.67
2019-03-21T10:59:02.386Z,59.51
2019-03-21T11:00:02.449Z,60.66
2019-03-21T11:01:02.215Z,58.32
2019-03-21T11:02:07.149Z,58.58
2019-03-21T11:03:02.167Z,56.89
2019-03-21T11:04:01.961Z,57.11
2019-03-21T11:05:01.878Z,58.17
2019-03-21T11:06:01.793Z,58.81
2019-03-21T11:07:01.715Z,58.81
2019-03-21T11:08:01.629Z,59.19
2019-03-21T11:09:01.566Z,59.41
2019-03-21T11:10:01.456Z,59.34
2019-03-21T11:11:01.376Z,60.31
2019-03-21T11:12:01.290Z,59.47
2019-03-21T11:13:01.207Z,59.28
2019-03-21T11:14:01.133Z,57.55
2019-03-21T11:15:01.033Z,59.22
2019-03-21T11:16:00.951Z,59.60
2019-03-21T11:17:00.975Z,59.15
2019-03-21T11:18:00.785Z,56.33
2019-03-21T11:19:00.712Z,57.88
2019-03-21T11:20:00.613Z,57.90
2019-03-21T11:21:00.533Z,59.74
2019-03-21T11:22:06.279Z,61.18
2019-03-21T11:23:00.362Z,61.82
2019-03-21T11:24:00.398Z,61.72
2019-03-21T11:25:00.341Z,62.33
2019-03-21T11:26:00.111Z,61.88
2019-03-21T11:27:00.025Z,62.46
2019-03-21T11:27:59.942Z,62.42
2019-03-21T11:28:59.870Z,61.94
2019-03-21T11:29:59.766Z,60.92
2019-03-21T11:30:59.791Z,59.36
2019-03-21T11:31:59.602Z,60.35
2019-03-21T11:32:59.511Z,62.01
2019-03-21T11:33:59.443Z,61.05
2019-03-21T11:34:59.374Z,61.05
2019-03-21T11:35:59.252Z,60.99
2019-03-21T11:36:59.171Z,60.09
2019-03-21T11:37:59.186Z,60.38
2019-03-21T11:38:59.013Z,60.67
2019-03-21T11:39:58.910Z,60.60
2019-03-21T11:40:58.825Z,59.61
2019-03-21T11:41:58.738Z,60.11
2019-03-21T11:42:58.673Z,59.00
2019-03-21T11:43:58.598Z,60.50
2019-03-21T11:44:58.590Z,59.64
2019-03-21T11:45:58.415Z,59.57
2019-03-21T11:46:58.313Z,57.84
2019-03-21T11:47:59.816Z,57.68
2019-03-21T11:48:58.164Z,58.74
2019-03-21T11:49:58.067Z,60.34
2019-03-21T11:50:57.968Z,60.66
2019-03-21T11:51:58.036Z,58.50
2019-03-21T11:52:57.797Z,54.97
2019-03-21T11:53:57.728Z,53.74
2019-03-21T11:54:57.634Z,54.54
2019-03-21T11:55:57.610Z,54.13
2019-03-21T11:56:57.472Z,54.54
2019-03-21T11:57:57.378Z,54.42
2019-03-21T11:58:57.409Z,53.29
2019-03-21T11:59:57.202Z,54.25
2019-03-21T12:00:57.122Z,55.26
2019-03-21T12:01:57.034Z,58.28
2019-03-21T12:02:56.953Z,56.93
2019-03-21T12:03:56.869Z,59.31
2019-03-21T12:04:56.798Z,58.25
2019-03-21T12:05:56.803Z,56.84
2019-03-21T12:06:56.614Z,57.32
2019-03-21T12:07:56.532Z,57.17
2019-03-21T12:08:56.451Z,57.00
2019-03-21T12:09:56.379Z,55.49
2019-03-21T12:10:56.280Z,55.23
2019-03-21T12:11:56.323Z,56.26
2019-03-21T12:12:56.115Z,57.22
2019-03-21T12:13:56.030Z,58.57
2019-03-21T12:14:55.960Z,57.36
2019-03-21T12:15:55.862Z,57.68
2019-03-21T12:16:55.785Z,59.58
2019-03-21T12:17:55.698Z,60.44
2019-03-21T12:18:55.613Z,61.24
2019-03-21T12:19:55.652Z,61.14
2019-03-21T12:20:55.441Z,59.61
2019-03-21T12:21:55.360Z,60.21
2019-03-21T12:22:55.277Z,61.30
2019-03-21T12:23:55.191Z,58.64
2019-03-21T12:24:55.123Z,58.94
2019-03-21T12:25:55.126Z,61.81
2019-03-21T12:26:54.938Z,60.60
2019-03-21T12:27:54.851Z,61.21
2019-03-21T12:28:54.768Z,61.33
2019-03-21T12:29:54.704Z,62.68
2019-03-21T12:30:54.601Z,60.66
2019-03-21T12:31:54.513Z,60.78
2019-03-21T12:32:54.427Z,58.70
2019-03-21T12:33:54.345Z,57.84
2019-03-21T12:34:54.260Z,57.20
2019-03-21T12:35:54.193Z,57.13
2019-03-21T12:36:54.090Z,57.13
2019-03-21T12:37:54.008Z,56.16
2019-03-21T12:38:53.918Z,58.47
2019-03-21T12:39:53.838Z,58.79
2019-03-21T12:40:53.769Z,57.45
2019-03-21T12:41:53.667Z,56.48
2019-03-21T12:42:53.583Z,57.87
2019-03-21T12:43:53.497Z,57.60
2019-03-21T12:44:53.414Z,57.25
2019-03-21T12:45:53.343Z,57.25
2019-03-21T12:46:53.245Z,57.03
2019-03-21T12:47:53.159Z,57.28
2019-03-21T12:48:53.080Z,55.52
2019-03-21T12:49:52.994Z,57.54
2019-03-21T12:50:52.924Z,58.28